Airport View

Enter AWOS ICAO identifier for current METAR.

KFNL for example

K42J 240820Z AUTO 21007KT 10SM CLR 24/24 A3000 RMK AO1 TSNO

24 Jul 2017 08:25

Frequency: 124.275

Phone: 352-473-8273

Other Area AWOS: KGNV - K28J - KVQQ - KNIP

TAF KGNV 240530Z 2406/2506 20002KT P6SM FEW020 SCT250 FM241000 20003KT P6SM VCTS SCT030CB BKN250 FM241300 22009KT P6SM VCTS BKN040CB TEMPO 2415/2419 VRB15G25KT 3SM -TSRA BKN025CB FM250100 21004KT P6SM SCT040 BKN250